WICK1: Arkansas River Nr Maize, KS

Data processed at Fri Jan 05 2018 23:17


All information presented herein is the property of the government of the United States of America and may be revised or deleted at any time without prior notice.
Dissemination of this information without the expressed written consent of the Public Affairs Office, Tulsa District U.S. Army Corps of Engineers is strictly prohibited.
These data are gathered electronically and, as presented, have not undergone any form of quality control. These data are not guaranteed to be valid or correct.
Go to home page.
Go to station list.

Upstream stations:

Downstream station:
Previous Day
Next Day
Current Day
    
SHEF ID:       WICK1     ARKANSAS R NR MAIZE, KS
STATION TYPE:  

               PRECIP     STAGE  RIV-FLOW  BAT-LOAD
                   in        ft       cfs      volt
              Ccp-Rev   Ccp-Rev   Ccp-Rev   Ccp-Rev
(US/Central)
01/03 00:00      0.00      5.68       256     12.25
01/03 01:00      0.00      5.69       260     12.25
01/03 02:00      0.00      5.71       267     12.25
01/03 03:00      0.00      5.71       267     12.17
01/03 04:00      0.00      5.72       271     12.17
01/03 05:00      0.00      5.72       271     12.17
01/03 06:00      0.00      5.73       275     12.09
01/03 07:00      0.00      5.74       278     12.09
01/03 08:00      0.00      5.73       275     12.09
01/03 09:00      0.00      5.75       282     12.17
01/03 10:00      0.00      5.75       282     12.49
01/03 11:00      0.00      5.76       286     12.81
01/03 12:00      0.00      5.76       286     13.84
01/03 13:00      0.00      5.76       286     13.92
01/03 14:00      0.00      5.77       290     14.00
01/03 15:00      0.00      5.80       301     13.68
01/03 16:00      0.00      5.79       297     13.68
01/03 17:00      0.00      5.80       301     13.68
01/03 18:00      0.00      5.79       297      ----
01/03 19:00      0.00      5.79       297     13.37
01/03 20:00      0.00      5.80       301     12.41
01/03 21:00      0.00      5.81       305     12.41
01/03 22:00      0.00      5.81       305     12.33
01/03 23:00      0.00      5.79       297     12.25